createdAt,value
2023-03-23T16:02:50.960Z,99218.66
2023-03-23T16:07:52.483Z,99228.22
2023-03-23T16:12:53.968Z,99214.00
2023-03-23T16:17:55.698Z,99220.84
2023-03-23T16:22:57.392Z,99215.66
2023-03-23T16:27:58.786Z,99226.31
2023-03-23T16:33:01.131Z,99252.06
2023-03-23T16:38:07.728Z,99268.50
2023-03-23T16:43:10.673Z,99261.91
2023-03-23T16:48:13.281Z,99265.75
2023-03-23T16:53:14.716Z,99261.66
2023-03-23T16:58:17.787Z,99266.84
2023-03-23T17:03:20.249Z,99256.13
2023-03-23T17:08:21.693Z,99260.78
2023-03-23T17:13:25.236Z,99260.25
2023-03-23T17:18:28.493Z,99273.13
2023-03-23T17:23:29.942Z,99297.19
2023-03-23T17:28:31.413Z,99287.34
2023-03-23T17:33:32.885Z,99288.94
2023-03-23T17:38:34.281Z,99286.78
2023-03-23T17:43:36.293Z,99293.59
2023-03-23T17:48:37.767Z,99294.13
2023-03-23T17:53:39.240Z,99289.47
2023-03-23T17:58:40.902Z,99284.50
2023-03-23T18:03:44.087Z,99294.59
2023-03-23T18:08:46.767Z,99287.22
2023-03-23T18:13:48.163Z,99300.03
2023-03-23T18:18:49.569Z,99307.69
2023-03-23T18:23:58.671Z,99299.72
2023-03-23T18:29:01.000Z,99307.69
2023-03-23T18:34:02.407Z,99302.22
2023-03-23T18:39:03.888Z,99303.28
2023-03-23T18:44:06.135Z,99302.16
2023-03-23T18:49:07.538Z,99291.50
2023-03-23T18:54:08.938Z,99300.53
2023-03-23T18:59:10.591Z,99306.00
2023-03-23T19:04:13.399Z,99307.59
2023-03-23T19:09:15.650Z,99309.25
2023-03-23T19:14:18.279Z,99304.03
2023-03-23T19:19:19.928Z,99300.44
2023-03-23T19:24:21.457Z,99305.31
2023-03-23T19:29:27.057Z,99301.53
2023-03-23T19:34:29.523Z,99308.63
2023-03-23T19:39:31.762Z,99302.56
2023-03-23T19:44:34.144Z,99286.97
2023-03-23T19:49:36.073Z,99291.09
2023-03-23T19:54:38.360Z,99285.06
2023-03-23T19:59:39.829Z,99300.63
2023-03-23T20:04:41.542Z,99294.88
2023-03-23T20:09:43.439Z,99300.63
2023-03-23T20:14:45.409Z,99300.56
2023-03-23T20:19:47.007Z,99311.75
2023-03-23T20:24:49.472Z,99297.56
2023-03-23T20:29:52.182Z,99298.34
2023-03-23T20:34:53.580Z,99302.41
2023-03-23T20:39:55.296Z,99308.94
2023-03-23T20:44:57.203Z,99309.53
2023-03-23T20:49:58.645Z,99319.09
2023-03-23T20:55:00.762Z,99315.53
2023-03-23T21:00:06.344Z,99301.59
2023-03-23T21:05:08.854Z,99304.34
2023-03-23T21:10:10.242Z,99306.16
2023-03-23T21:15:12.182Z,99304.53
2023-03-23T21:20:13.567Z,99295.81
2023-03-23T21:25:15.109Z,99285.97
2023-03-23T21:30:16.518Z,99288.06
2023-03-23T21:35:17.906Z,99280.69
2023-03-23T21:40:19.877Z,99279.09
2023-03-23T21:45:21.814Z,99268.72
2023-03-23T21:50:24.141Z,99264.34
2023-03-23T21:55:29.584Z,99253.69
2023-03-23T22:00:30.992Z,99249.59
2023-03-23T22:05:32.895Z,99252.63
2023-03-23T22:10:34.290Z,99244.41
2023-03-23T22:15:36.744Z,99248.22
2023-03-23T22:20:40.221Z,99232.97
2023-03-23T22:25:41.748Z,99230.75
2023-03-23T22:30:43.352Z,99228.53
2023-03-23T22:35:47.427Z,99226.06
2023-03-23T22:40:59.224Z,99226.91
2023-03-23T22:46:00.691Z,99218.97
2023-03-23T22:51:03.482Z,99207.75
2023-03-23T22:56:05.487Z,99200.38
2023-03-23T23:01:09.043Z,99193.56
2023-03-23T23:06:11.711Z,99186.97
2023-03-23T23:11:17.279Z,99189.47
2023-03-23T23:16:19.207Z,99178.53
2023-03-23T23:21:21.770Z,99170.63
2023-03-23T23:26:23.409Z,99171.91
2023-03-23T23:31:27.273Z,99174.66
2023-03-23T23:36:29.596Z,99159.66
2023-03-23T23:41:31.599Z,99155.28
2023-03-23T23:46:33.080Z,99154.16
2023-03-23T23:51:34.747Z,99142.41
2023-03-23T23:56:36.243Z,99132.84
